createdAt,value
2022-12-24T00:01:54.654Z,100288.16
2022-12-24T00:05:01.403Z,100286.47
2022-12-24T00:08:06.164Z,100299.38
2022-12-24T00:11:10.784Z,100297.75
2022-12-24T00:14:15.298Z,100288.25
2022-12-24T00:17:19.713Z,100296.88
2022-12-24T00:20:25.119Z,100303.56
2022-12-24T00:23:30.246Z,100300.34
2022-12-24T00:26:35.260Z,100299.44
2022-12-24T00:29:39.911Z,100302.06
2022-12-24T00:32:44.048Z,100297.06
2022-12-24T00:35:52.366Z,100297.75
2022-12-24T00:38:56.635Z,100291.81
2022-12-24T00:42:01.023Z,100294.41
2022-12-24T00:45:06.211Z,100299.72
2022-12-24T00:48:10.835Z,100300.00
2022-12-24T00:51:15.842Z,100302.59
2022-12-24T00:54:20.671Z,100302.50
2022-12-24T00:57:24.846Z,100300.88
2022-12-24T01:00:29.209Z,100300.81
2022-12-24T01:03:35.412Z,100306.06
2022-12-24T01:06:39.999Z,100306.81
2022-12-24T01:09:44.001Z,100311.38
2022-12-24T01:12:48.308Z,100311.31
2022-12-24T01:15:53.002Z,100318.19
2022-12-24T01:18:57.451Z,100312.97
2022-12-24T01:22:01.984Z,100316.50
2022-12-24T01:25:06.785Z,100316.44
2022-12-24T01:28:10.888Z,100323.38
2022-12-24T01:31:18.882Z,100326.78
2022-12-24T01:34:23.076Z,100328.38
2022-12-24T01:37:27.547Z,100327.69
2022-12-24T01:40:50.718Z,100323.28
2022-12-24T01:43:55.466Z,100321.41
2022-12-24T01:47:17.835Z,100327.41
2022-12-24T01:50:22.099Z,100332.53
2022-12-24T01:53:26.514Z,100338.59
2022-12-24T01:56:32.439Z,100330.09
2022-12-24T01:59:38.901Z,100327.59
2022-12-24T02:02:47.938Z,100331.88
2022-12-24T02:05:57.280Z,100338.84
2022-12-24T02:09:02.013Z,100337.97
2022-12-24T02:12:07.611Z,100343.97
2022-12-24T02:15:15.675Z,100348.19
2022-12-24T02:18:34.697Z,100354.19
2022-12-24T02:22:11.474Z,100359.47
2022-12-24T02:25:30.418Z,100360.31
2022-12-24T02:29:19.658Z,100361.19
2022-12-24T02:33:14.760Z,100363.88
2022-12-24T02:37:07.015Z,100366.47
2022-12-24T02:40:22.011Z,100366.38
2022-12-24T02:43:35.856Z,100379.41
2022-12-24T02:46:40.210Z,100380.25
2022-12-24T02:49:47.652Z,100382.84
2022-12-24T02:52:52.334Z,100386.16
2022-12-24T02:56:13.336Z,100379.34
2022-12-24T02:59:40.415Z,100382.84
2022-12-24T03:03:12.632Z,100383.56
2022-12-24T03:06:33.824Z,100386.25
2022-12-24T03:10:06.646Z,100396.66
2022-12-24T03:13:18.987Z,100399.13
2022-12-24T03:16:26.980Z,100408.69
2022-12-24T03:19:32.995Z,100397.59
2022-12-24T03:22:38.113Z,100411.31
2022-12-24T03:25:44.991Z,100416.34
2022-12-24T03:28:50.177Z,100416.44
2022-12-24T03:32:02.263Z,100418.31
2022-12-24T03:35:08.711Z,100427.00
2022-12-24T03:38:13.248Z,100440.03
2022-12-24T03:41:17.506Z,100433.03
2022-12-24T03:44:21.689Z,100439.09
2022-12-24T03:47:26.195Z,100440.84
2022-12-24T03:50:30.528Z,100444.44
2022-12-24T03:53:34.759Z,100450.31
2022-12-24T03:56:38.740Z,100443.38
2022-12-24T03:59:43.192Z,100445.34
2022-12-24T04:02:47.899Z,100448.66
2022-12-24T04:06:11.275Z,100459.00
2022-12-24T04:09:15.928Z,100460.78
2022-12-24T04:12:20.313Z,100465.06
2022-12-24T04:15:25.115Z,100458.88
2022-12-24T04:18:29.929Z,100454.59
2022-12-24T04:21:34.184Z,100458.03
2022-12-24T04:24:38.476Z,100462.50
2022-12-24T04:27:42.926Z,100464.31
2022-12-24T04:30:47.289Z,100466.09
2022-12-24T04:33:53.355Z,100472.97
2022-12-24T04:36:58.429Z,100474.78
2022-12-24T04:40:03.213Z,100480.81
2022-12-24T04:43:07.707Z,100481.72
2022-12-24T04:46:18.042Z,100489.41
2022-12-24T04:49:22.774Z,100493.81
2022-12-24T04:52:28.025Z,100491.03
2022-12-24T04:55:32.368Z,100493.75
2022-12-24T04:58:36.819Z,100490.28
2022-12-24T05:01:41.419Z,100492.78
2022-12-24T05:04:46.082Z,100491.88
2022-12-24T05:07:50.534Z,100492.78
2022-12-24T05:10:59.328Z,100493.63
2022-12-24T05:14:04.006Z,100501.25
2022-12-24T05:17:08.969Z,100501.44
2022-12-24T05:20:13.266Z,100497.09
2022-12-24T05:23:43.684Z,100503.97
2022-12-24T05:26:57.170Z,100498.63
2022-12-24T05:30:01.460Z,100499.72
2022-12-24T05:33:06.136Z,100510.09
2022-12-24T05:36:10.761Z,100510.97
2022-12-24T05:39:17.477Z,100513.50
2022-12-24T05:42:22.130Z,100522.00
2022-12-24T05:45:26.664Z,100525.59
2022-12-24T05:48:31.122Z,100523.09
2022-12-24T05:51:35.771Z,100532.59
2022-12-24T05:54:40.709Z,100525.44
2022-12-24T05:57:45.733Z,100525.53
2022-12-24T06:00:54.457Z,100530.88
2022-12-24T06:03:58.929Z,100529.09
2022-12-24T06:07:03.106Z,100534.28
2022-12-24T06:10:08.913Z,100527.41
2022-12-24T06:13:13.647Z,100529.81
2022-12-24T06:16:20.461Z,100533.28
2022-12-24T06:19:26.105Z,100526.25
2022-12-24T06:22:30.888Z,100530.69
2022-12-24T06:25:35.287Z,100537.59
2022-12-24T06:28:40.124Z,100535.88
2022-12-24T06:31:44.694Z,100544.50
2022-12-24T06:34:49.329Z,100540.34
2022-12-24T06:37:53.570Z,100547.06
2022-12-24T06:40:57.825Z,100546.22
2022-12-24T06:44:02.106Z,100544.63
2022-12-24T06:47:06.961Z,100554.09
2022-12-24T06:50:11.927Z,100550.59
2022-12-24T06:53:16.318Z,100554.03
2022-12-24T06:56:22.022Z,100560.09
2022-12-24T06:59:26.570Z,100562.69
2022-12-24T07:02:30.912Z,100579.25
2022-12-24T07:05:35.274Z,100578.25
2022-12-24T07:08:39.484Z,100586.72
2022-12-24T07:11:43.701Z,100586.06
2022-12-24T07:14:47.936Z,100595.59
2022-12-24T07:17:52.842Z,100596.31
2022-12-24T07:20:58.258Z,100601.47
2022-12-24T07:24:02.778Z,100598.00
2022-12-24T07:27:07.161Z,100606.72
2022-12-24T07:30:12.148Z,100614.47
2022-12-24T07:33:16.688Z,100608.28
2022-12-24T07:36:22.135Z,100603.88
2022-12-24T07:39:26.927Z,100611.56
2022-12-24T07:42:31.283Z,100622.06
2022-12-24T07:45:35.907Z,100627.16
2022-12-24T07:48:40.642Z,100634.19
2022-12-24T07:51:45.561Z,100628.09
2022-12-24T07:54:49.734Z,100628.16
2022-12-24T07:57:54.033Z,100648.13
2022-12-24T08:01:00.095Z,100656.72
2022-12-24T08:04:05.777Z,100653.25
2022-12-24T08:07:10.817Z,100648.06
2022-12-24T08:10:15.307Z,100647.19
2022-12-24T08:13:20.234Z,100648.75
2022-12-24T08:16:24.916Z,100647.03
2022-12-24T08:19:29.611Z,100649.66
2022-12-24T08:22:34.059Z,100635.81
2022-12-24T08:25:42.288Z,100644.47
2022-12-24T08:28:46.738Z,100658.34
2022-12-24T08:31:51.172Z,100666.97
2022-12-24T08:34:55.972Z,100669.59
2022-12-24T08:38:00.356Z,100675.50
2022-12-24T08:41:05.658Z,100670.22
2022-12-24T08:44:10.434Z,100673.84
2022-12-24T08:47:14.806Z,100667.78
2022-12-24T08:50:19.051Z,100673.78
2022-12-24T08:53:23.449Z,100680.63
2022-12-24T08:56:27.976Z,100679.06
2022-12-24T08:59:32.348Z,100684.19
2022-12-24T09:02:37.051Z,100693.72
2022-12-24T09:05:41.641Z,100701.50
2022-12-24T09:08:50.624Z,100707.31
2022-12-24T09:11:55.155Z,100713.34
2022-12-24T09:15:03.399Z,100716.03
2022-12-24T09:18:08.495Z,100717.69
2022-12-24T09:21:15.605Z,100721.09
2022-12-24T09:24:20.104Z,100725.41
2022-12-24T09:27:24.459Z,100743.59
2022-12-24T09:30:28.739Z,100751.25
2022-12-24T09:33:36.931Z,100753.78
2022-12-24T09:36:41.252Z,100759.81
2022-12-24T09:39:45.628Z,100761.72
2022-12-24T09:42:54.338Z,100766.03
2022-12-24T09:46:22.827Z,100765.97
2022-12-24T09:49:40.575Z,100778.81
2022-12-24T09:52:47.517Z,100773.59
2022-12-24T09:56:00.558Z,100777.09
2022-12-24T09:59:13.486Z,100781.38
2022-12-24T10:02:20.376Z,100782.06
2022-12-24T10:05:44.012Z,100785.38
2022-12-24T10:09:24.057Z,100778.53
2022-12-24T10:12:47.588Z,100784.75
2022-12-24T10:16:33.001Z,100789.03
2022-12-24T10:19:56.673Z,100793.38
2022-12-24T10:23:31.993Z,100797.59
2022-12-24T10:26:55.364Z,100790.53
2022-12-24T10:30:16.916Z,100797.44
2022-12-24T10:33:49.926Z,100792.91
2022-12-24T10:36:54.589Z,100792.94
2022-12-24T10:40:00.873Z,100803.22
2022-12-24T10:43:16.601Z,100804.03
2022-12-24T10:46:38.941Z,100795.34
2022-12-24T10:50:02.400Z,100800.75
2022-12-24T10:53:48.756Z,100818.03
2022-12-24T10:57:02.090Z,100817.88
2022-12-24T11:00:19.046Z,100816.28
2022-12-24T11:03:42.609Z,100812.91
2022-12-24T11:06:57.547Z,100812.03
2022-12-24T11:10:08.053Z,100806.63
2022-12-24T11:13:39.724Z,100796.13
2022-12-24T11:16:57.117Z,100792.84
2022-12-24T11:20:04.084Z,100800.63
2022-12-24T11:23:17.230Z,100808.97
2022-12-24T11:26:31.709Z,100803.63
2022-12-24T11:29:36.097Z,100797.34
2022-12-24T11:32:48.499Z,100792.94
2022-12-24T11:36:00.598Z,100791.41
2022-12-24T11:39:05.499Z,100797.34
2022-12-24T11:42:39.355Z,100795.75
2022-12-24T11:45:58.028Z,100791.28
2022-12-24T11:49:31.730Z,100794.09
2022-12-24T11:52:36.323Z,100797.53
2022-12-24T11:55:45.607Z,100792.91
2022-12-24T11:58:57.436Z,100794.78
2022-12-24T12:02:30.078Z,100796.28
2022-12-24T12:05:37.928Z,100790.19
2022-12-24T12:08:43.656Z,100789.03
2022-12-24T12:11:57.694Z,100786.38
2022-12-24T12:15:24.846Z,100794.19
2022-12-24T12:18:40.589Z,100801.75
2022-12-24T12:21:49.347Z,100805.25
2022-12-24T12:24:56.222Z,100812.97
2022-12-24T12:28:07.548Z,100817.25
2022-12-24T12:31:26.613Z,100816.31
2022-12-24T12:34:46.240Z,100818.88
2022-12-24T12:38:23.128Z,100815.47
2022-12-24T12:42:03.762Z,100816.16
2022-12-24T12:45:34.195Z,100812.56
2022-12-24T12:49:03.246Z,100814.19
2022-12-24T12:52:42.158Z,100819.25
2022-12-24T12:56:11.163Z,100827.97
2022-12-24T12:59:33.677Z,100831.25
2022-12-24T13:03:13.119Z,100838.94
2022-12-24T13:06:59.871Z,100841.72
2022-12-24T13:10:24.267Z,100849.47
2022-12-24T13:13:51.588Z,100864.91
2022-12-24T13:17:01.864Z,100863.97
2022-12-24T13:20:36.869Z,100867.72
2022-12-24T13:23:41.194Z,100875.41
2022-12-24T13:27:32.919Z,100883.06
2022-12-24T13:30:43.499Z,100883.47
2022-12-24T13:33:51.524Z,100892.09
2022-12-24T13:37:20.856Z,100891.03
2022-12-24T13:40:27.335Z,100900.50
2022-12-24T13:44:11.202Z,100908.19
2022-12-24T13:47:25.424Z,100911.56
2022-12-24T13:50:50.716Z,100913.28
2022-12-24T13:54:00.301Z,100925.28
2022-12-24T13:57:27.506Z,100919.16
2022-12-24T14:01:00.660Z,100908.03
2022-12-24T14:04:09.623Z,100918.38
2022-12-24T14:07:20.506Z,100910.41
2022-12-24T14:10:31.874Z,100914.75
2022-12-24T14:13:39.518Z,100921.88
2022-12-24T14:16:50.322Z,100926.09
2022-12-24T14:20:02.606Z,100923.50
2022-12-24T14:23:23.206Z,100921.63
2022-12-24T14:26:35.702Z,100931.19
2022-12-24T14:30:21.071Z,100938.22
2022-12-24T14:33:31.949Z,100953.69
2022-12-24T14:36:37.729Z,100961.47
2022-12-24T14:39:48.742Z,100952.75
2022-12-24T14:43:26.232Z,100960.47
2022-12-24T14:47:01.871Z,100974.19
2022-12-24T14:50:39.391Z,100983.59
2022-12-24T14:54:31.592Z,100989.75
2022-12-24T14:57:38.535Z,100992.38
2022-12-24T15:00:44.286Z,101002.69
2022-12-24T15:04:14.920Z,101011.47
2022-12-24T15:07:20.399Z,101011.47
2022-12-24T15:10:33.790Z,101014.88
2022-12-24T15:13:46.541Z,101022.72
2022-12-24T15:16:58.256Z,101032.25
2022-12-24T15:20:07.737Z,101034.78
2022-12-24T15:23:37.529Z,101038.91
2022-12-24T15:26:45.545Z,101042.31
2022-12-24T15:29:58.397Z,101049.34
2022-12-24T15:33:05.356Z,101057.88
2022-12-24T15:36:10.341Z,101075.09
2022-12-24T15:39:18.599Z,101073.28
2022-12-24T15:42:27.621Z,101080.22
2022-12-24T15:45:44.008Z,101083.47
2022-12-24T15:48:50.323Z,101093.81
2022-12-24T15:52:02.937Z,101102.44
2022-12-24T15:55:38.354Z,101100.56
2022-12-24T15:58:45.712Z,101094.41
2022-12-24T16:01:52.093Z,101107.25
2022-12-24T16:05:29.700Z,101108.75
2022-12-24T16:08:40.320Z,101117.22
2022-12-24T16:11:45.274Z,101121.56
2022-12-24T16:15:00.855Z,101125.84
2022-12-24T16:18:06.209Z,101135.53
2022-12-24T16:21:19.015Z,101137.34
2022-12-24T16:24:28.456Z,101146.91
2022-12-24T16:27:33.023Z,101160.19
2022-12-24T16:30:37.245Z,101162.66
2022-12-24T16:33:41.828Z,101171.50
2022-12-24T16:36:46.863Z,101178.16
2022-12-24T16:39:51.312Z,101180.81
2022-12-24T16:43:17.609Z,101189.56
2022-12-24T16:46:22.447Z,101193.66
2022-12-24T16:49:27.871Z,101196.34
2022-12-24T16:52:36.145Z,101208.59
2022-12-24T16:55:40.262Z,101218.22
2022-12-24T16:58:45.276Z,101219.09
2022-12-24T17:01:51.208Z,101218.06
2022-12-24T17:04:56.070Z,101218.06
2022-12-24T17:08:01.919Z,101231.88
2022-12-24T17:11:06.258Z,101237.25
2022-12-24T17:14:19.656Z,101244.28
2022-12-24T17:17:28.979Z,101243.44
2022-12-24T17:20:33.812Z,101253.78
2022-12-24T17:23:41.779Z,101259.91
2022-12-24T17:26:46.348Z,101262.56
2022-12-24T17:29:50.910Z,101267.03
2022-12-24T17:32:55.151Z,101266.09
2022-12-24T17:35:59.352Z,101273.03
2022-12-24T17:39:03.910Z,101276.59
2022-12-24T17:42:08.271Z,101280.09
2022-12-24T17:45:12.581Z,101282.53
2022-12-24T17:48:16.855Z,101288.53
2022-12-24T17:51:23.432Z,101290.50
2022-12-24T17:54:27.791Z,101288.66
2022-12-24T17:57:32.135Z,101295.69
2022-12-24T18:00:36.842Z,101293.94
2022-12-24T18:03:41.991Z,101298.25
2022-12-24T18:06:49.528Z,101305.41
2022-12-24T18:09:54.303Z,101316.56
2022-12-24T18:12:58.584Z,101313.16
2022-12-24T18:16:02.821Z,101327.81
2022-12-24T18:19:11.648Z,101325.34
2022-12-24T18:22:16.174Z,101326.19
2022-12-24T18:25:20.672Z,101334.84
2022-12-24T18:28:25.052Z,101331.59
2022-12-24T18:31:30.639Z,101328.91
2022-12-24T18:34:35.509Z,101330.94
2022-12-24T18:37:39.964Z,101339.00
2022-12-24T18:40:44.023Z,101342.25
2022-12-24T18:43:48.663Z,101344.25
2022-12-24T18:46:53.746Z,101345.81
2022-12-24T18:49:58.391Z,101352.00
2022-12-24T18:53:04.183Z,101346.03
2022-12-24T18:56:16.137Z,101345.94
2022-12-24T18:59:20.479Z,101349.31
2022-12-24T19:02:25.219Z,101351.31
2022-12-24T19:05:31.039Z,101349.44
2022-12-24T19:12:00.504Z,101347.72
2022-12-24T19:15:06.613Z,101339.16
2022-12-24T19:18:10.955Z,101335.88
2022-12-24T19:21:17.726Z,101346.06
2022-12-24T19:24:22.731Z,101352.78
2022-12-24T19:27:27.409Z,101354.78
2022-12-24T19:30:31.990Z,101352.34
2022-12-24T19:33:43.257Z,101353.03
2022-12-24T19:36:48.231Z,101350.38
2022-12-24T19:39:53.276Z,101346.91
2022-12-24T19:42:58.076Z,101351.34
2022-12-24T19:46:06.439Z,101360.16
2022-12-24T19:49:12.438Z,101354.97
2022-12-24T19:52:16.894Z,101355.03
2022-12-24T19:55:21.340Z,101363.78
2022-12-24T19:58:27.377Z,101358.63
2022-12-24T20:01:35.251Z,101355.25
2022-12-24T20:04:40.394Z,101364.94
2022-12-24T20:07:45.045Z,101362.47
2022-12-24T20:10:49.462Z,101360.00
2022-12-24T20:13:58.550Z,101364.34
2022-12-24T20:17:02.900Z,101370.41
2022-12-24T20:20:08.463Z,101374.81
2022-12-24T20:23:13.117Z,101375.69
2022-12-24T20:26:20.404Z,101380.06
2022-12-24T20:29:25.102Z,101373.13
2022-12-24T20:32:29.723Z,101376.59
2022-12-24T20:35:35.880Z,101381.00
2022-12-24T20:38:40.406Z,101381.00
2022-12-24T20:41:45.069Z,101380.19
2022-12-24T20:44:49.602Z,101387.16
2022-12-24T20:47:54.156Z,101382.00
2022-12-24T20:50:59.201Z,101383.75
2022-12-24T20:54:04.444Z,101389.88
2022-12-24T20:57:08.615Z,101374.31
2022-12-24T21:00:13.763Z,101373.47
2022-12-24T21:03:18.773Z,101381.38
2022-12-24T21:06:24.532Z,101383.16
2022-12-24T21:09:30.443Z,101380.50
2022-12-24T21:12:50.249Z,101378.72
2022-12-24T21:15:54.900Z,101374.31
2022-12-24T21:18:59.593Z,101369.06
2022-12-24T21:22:04.026Z,101362.19
2022-12-24T21:25:10.038Z,101366.56
2022-12-24T21:28:17.578Z,101365.78
2022-12-24T21:31:22.269Z,101357.97
2022-12-24T21:34:27.057Z,101356.34
2022-12-24T21:37:31.476Z,101350.28
2022-12-24T21:40:38.897Z,101345.97
2022-12-24T21:43:44.596Z,101350.38
2022-12-24T21:46:49.571Z,101350.41
2022-12-24T21:50:12.451Z,101338.25
2022-12-24T21:53:36.150Z,101348.50
2022-12-24T21:56:59.665Z,101344.94
2022-12-24T22:00:26.676Z,101350.88
2022-12-24T22:03:31.348Z,101355.19
2022-12-24T22:06:54.681Z,101368.97
2022-12-24T22:10:17.622Z,101375.81
2022-12-24T22:13:23.119Z,101374.84
2022-12-24T22:16:28.288Z,101382.56
2022-12-24T22:19:32.996Z,101375.56
2022-12-24T22:22:37.741Z,101387.66
2022-12-24T22:25:43.901Z,101381.47
2022-12-24T22:28:48.140Z,101383.19
2022-12-24T22:31:52.762Z,101387.41
2022-12-24T22:34:57.235Z,101387.34
2022-12-24T22:38:01.753Z,101387.28
2022-12-24T22:41:08.693Z,101381.16
2022-12-24T22:44:13.180Z,101379.34
2022-12-24T22:47:17.550Z,101390.56
2022-12-24T22:50:22.388Z,101382.69
2022-12-24T22:53:26.949Z,101387.00
2022-12-24T22:56:35.518Z,101389.59
2022-12-24T22:59:43.470Z,101390.38
2022-12-24T23:02:48.122Z,101391.22
2022-12-24T23:06:10.925Z,101394.97
2022-12-24T23:09:16.019Z,101399.06
2022-12-24T23:12:40.586Z,101405.06
2022-12-24T23:15:44.964Z,101407.56
2022-12-24T23:18:49.008Z,101403.44
2022-12-24T23:21:53.356Z,101414.97
2022-12-24T23:24:57.672Z,101417.53
2022-12-24T23:28:02.142Z,101430.59
2022-12-24T23:31:07.203Z,101438.31
2022-12-24T23:34:11.890Z,101446.03
2022-12-24T23:37:16.009Z,101468.63
2022-12-24T23:40:20.080Z,101466.09
2022-12-24T23:43:24.752Z,101464.34
2022-12-24T23:46:30.230Z,101465.91
2022-12-24T23:49:34.848Z,101466.78
2022-12-24T23:52:38.908Z,101465.97
2022-12-24T23:55:43.344Z,101469.47
2022-12-24T23:58:48.373Z,101470.50
